• Join FlightAware (Why Join?)
  • Login
  • US Flag 
11:37AM EST


 

Airport Tracker/Info


-or-


 

Live Flight TrackerFlight Track Log ✈ N36VE ✈ 11-Jan-2013 ✈ K59 - KJYR

Flight Track Log - Related Links

Times and Time Zones

All times are in EST time to prevent confusion due to time zone crossing. See the N36VE flight status page for this flight to view local times or setup timezone preferences in your user account.

Time Position Orientation Groundspeed Altitude Reporting Facility
EST Latitude Longitude Course Direction KTS MPH feet Rate Location/Type
11:07AM 39.7131 -95.4097 305° West 177 204 5,100  Level Kansas City Center
11:08AM 39.7336 -95.4478 305° West 148 170 5,700 420 Climbing Kansas City Center
11:09AM 39.7561 -95.4883 306° West 143 165 6,000 180 Climbing Kansas City Center
11:10AM 39.7850 -95.5403 306° West 154 177 6,100  Climbing Kansas City Center
11:11AM 39.8117 -95.5892 305° West 160 184 6,000 -60 Descending Kansas City Center
11:12AM 39.8383 -95.6328 309° West 171 197 6,000  Level Kansas City Center
11:13AM 39.8650 -95.6847 304° West 176 203 6,000 -60 Level Kansas City Center
11:14AM 39.8883 -95.7272 306° West 170 196 5,900 -60 Descending Minneapolis Center
11:15AM 39.9161 -95.7778 306° West 171 197 5,900  Level Minneapolis Center
11:16AM 39.9428 -95.8286 304° West 171 197 6,000  Climbing Minneapolis Center
11:17AM 39.9703 -95.8775 306° West 169 194 6,000  Level Minneapolis Center
11:18AM 39.9983 -95.9275 306° West 170 196 6,000  Level Minneapolis Center
11:19AM 40.0256 -95.9778 305° West 170 196 6,000  Level Minneapolis Center
11:20AM 40.0536 -96.0297 305° West 171 197 6,000  Level Minneapolis Center
11:21AM 40.0864 -96.0911 305° West 171 197 6,000  Level Minneapolis Center
11:22AM 40.1139 -96.1414 306° West 171 197 6,000  Level Minneapolis Center
11:23AM 40.1419 -96.1933 305° West 172 198 6,000  Level Minneapolis Center
11:24AM 40.1703 -96.2467 305° West 174 200 6,000  Level Minneapolis Center
11:25AM 40.1992 -96.2989 306° West 176 203 6,000  Level Minneapolis Center
11:26AM 40.2267 -96.3519 304° West 176 203 6,000  Level Minneapolis Center
11:27AM 40.2447 -96.3778 312° West 179 206 6,000  Level Minneapolis Center
11:28AM 40.2839 -96.4583 303° West 177 204 6,000  Level Minneapolis Center
11:29AM 40.3119 -96.5106 305° West 177 204 6,000  Level Minneapolis Center
11:30AM 40.3400 -96.5642 304° West 177 204 6,000  Level Minneapolis Center
11:31AM 40.3750 -96.6289 305° West 179 206 6,000  Level Minneapolis Center
11:32AM 40.4031 -96.6831 304° West 179 206 6,000  Level Minneapolis Center
11:33AM 40.4319 -96.7364 305° West 179 206 6,000  Level Minneapolis Center
11:34AM 40.4611 -96.7917 305° West 181 208 6,000  Level Minneapolis Center
11:35AM 40.4906 -96.8472 305° West 183 211 6,000  Level Minneapolis Center
11:36AM 40.5194 -96.9014 305° West 181 208 6,000  Level Minneapolis Center
11:37AM 40.5486 -96.9561 305° West 182 209 6,000  Level Minneapolis Center
11:38AM 40.5772 -97.0125 304° West 184 212 6,000  Level Minneapolis Center
11:39AM 40.6067 -97.0675 305° West 184 212 6,000  Level Minneapolis Center
11:40AM 40.6417 -97.1331 305° West 183 211 6,000  Level Minneapolis Center
11:41AM 40.6819 -97.1761 321° Northwest 192 221 6,000  Level Minneapolis Center
11:42AM 40.7258 -97.2158 326° Northwest 189 217 6,000  Level Minneapolis Center
11:43AM 40.7714 -97.2564 326° Northwest 199 229 6,000  Level Minneapolis Center
11:44AM 40.8164 -97.2947 327° Northwest 195 224 6,000  Level Minneapolis Center
11:45AM 40.8628 -97.3344 327° Northwest 196 226 6,000  Level Minneapolis Center
11:46AM 40.9092 -97.3764 326° Northwest 196 226 6,000  Level Minneapolis Center
11:47AM 40.9569 -97.4161 328° Northwest 199 229 6,000 -240 Level Minneapolis Center
11:48AM 41.0031 -97.4572 326° Northwest 199 229 5,600 -480 Descending Minneapolis Center
11:49AM 41.0494 -97.4981 326° Northwest 200 230 5,100 -540 Descending Minneapolis Center
11:50AM 41.0908 -97.5406 322° Northwest 194 223 4,500 -540 Descending Minneapolis Center
11:51AM 41.0875 -97.6056 266° West 144 166 4,100 -300 Descending Minneapolis Center
11:52AM 41.0811 -97.6419 257° West 108 124 4,000 -300 Descending Minneapolis Center
11:54AM 41.0533 -97.6400 177° South 109 125 3,500 -300 Descending Minneapolis Center
11:55AM 41.0306 -97.6342 169° South 104 120 3,400 -180 Descending Minneapolis Center
11:56AM 41.0067 -97.6367 185° South 105 121 3,200 -120 Descending Minneapolis Center
11:57AM 40.9839 -97.6325 172° South 88 101 3,200 -120 Level Minneapolis Center
11:58AM 40.9611 -97.6303 176° South 88 101 3,000 -240 Descending Minneapolis Center
12:00PM 40.8964 -97.6241 176° South  Level Estimated
12:07PM 40.8964 -97.6241 176° South  Level Estimated
12:08PM 40.8964 -97.6241 176° South  Level Estimated
12:09PM 40.8964 -97.6241 176° South  Level Estimated
12:10PM 40.8964 -97.6241 176° South  Level Estimated
12:11PM 40.8964 -97.6241 176° South  Level Estimated